PWSweather.com
Personal Weather Stations
Station Observations
ANTHEMNP
Anthem, AZ 85086

Anthem, AZ 85086

Lat: 33.876464, Lon: -112.13861199999997

Elevation: 1930

Station Type: AcuRite 1036

High Low Average
Temperature 85.3°F29.6°F 61.7°F16.5°F 73.4°F23.0°F
Dew Point 50.0°F10.0°F 37.0°F2.8°F 42.6°F5.9°F
Winds 10.4 mph S16.7 mph S Calm Calm 3.1 mph 5.0 mph
Wind Gusts 13.8 mph22.2 mph -- 4.2 mph6.8 mph
Humidity 41% 26% 34%
Pressure 29.85 in1010.80 in 29.73 in1006.80 in -
Precipitation 0.00 in0.00 in - -
Hour Temp Dew Point Humidity Winds Wind Gusts Pressure Precip Precip Rate Daily Precip Total
12:00 AM 70.4°F21.3°C 37.5°F3.1°C 30% Calm Calm -- 29.78 in1008.5 mb - 0.00 in0.0 mm 0.00 in0.0 mm
12:05 AM 70.5°F21.4°C 37.6°F3.1°C 30% Calm Calm -- 29.78 in1008.5 mb - 0.00 in0.0 mm 0.00 in0.0 mm
12:10 AM 70.5°F21.4°C 37.6°F3.1°C 30% Calm Calm 1.2 mph1.9 kmh 29.78 in1008.5 mb - 0.00 in0.0 mm 0.00 in0.0 mm
12:15 AM 70.5°F21.4°C 37.6°F3.1°C 30% Calm Calm 1.2 mph1.9 kmh 29.78 in1008.5 mb - 0.00 in0.0 mm 0.00 in0.0 mm
12:20 AM 70.7°F21.5°C 37.7°F3.2°C 30% Calm Calm -- 29.79 in1008.8 mb - 0.00 in0.0 mm 0.00 in0.0 mm
12:25 AM 71.4°F21.9°C 38.3°F3.5°C 30% 1.2 mph S1.9 kmh S 1.2 mph1.9 kmh 29.79 in1008.8 mb - 0.00 in0.0 mm 0.00 in0.0 mm
12:30 AM 71.4°F21.9°C 38.3°F3.5°C 30% 2.3 mph SE3.7 kmh SE 2.3 mph3.7 kmh 29.79 in1008.8 mb - 0.00 in0.0 mm 0.00 in0.0 mm
12:35 AM 71.4°F21.9°C 38.3°F3.5°C 30% Calm Calm -- 29.78 in1008.5 mb - 0.00 in0.0 mm 0.00 in0.0 mm
12:40 AM 70.8°F21.6°C 37.8°F3.2°C 30% Calm Calm -- 29.78 in1008.5 mb - 0.00 in0.0 mm 0.00 in0.0 mm
12:45 AM 69.9°F21.1°C 38.6°F3.7°C 32% Calm Calm -- 29.79 in1008.8 mb - 0.00 in0.0 mm 0.00 in0.0 mm
12:50 AM 69.6°F20.9°C 38.4°F3.6°C 32% Calm Calm -- 29.79 in1008.8 mb - 0.00 in0.0 mm 0.00 in0.0 mm
12:55 AM 69.3°F20.7°C 38.2°F3.4°C 32% Calm Calm -- 29.79 in1008.8 mb - 0.00 in0.0 mm 0.00 in0.0 mm
01:00 AM 69.0°F20.6°C 38.6°F3.7°C 33% Calm Calm -- 29.79 in1008.8 mb - 0.00 in0.0 mm 0.00 in0.0 mm
01:05 AM 68.0°F20.0°C 37.8°F3.2°C 33% Calm Calm -- 29.79 in1008.8 mb - 0.00 in0.0 mm 0.00 in0.0 mm
01:10 AM 68.0°F20.0°C 37.8°F3.2°C 33% Calm Calm -- 29.79 in1008.8 mb - 0.00 in0.0 mm 0.00 in0.0 mm
01:15 AM 67.2°F19.6°C 37.9°F3.3°C 34% Calm Calm -- 29.79 in1008.8 mb - 0.00 in0.0 mm 0.00 in0.0 mm
01:20 AM 66.6°F19.2°C 37.3°F2.9°C 34% Calm Calm -- 29.79 in1008.8 mb - 0.00 in0.0 mm 0.00 in0.0 mm
01:25 AM 66.9°F19.4°C 37.6°F3.1°C 34% Calm Calm -- 29.79 in1008.8 mb - 0.00 in0.0 mm 0.00 in0.0 mm
01:30 AM 66.2°F19.0°C 37.0°F2.8°C 34% Calm Calm -- 29.79 in1008.8 mb - 0.00 in0.0 mm 0.00 in0.0 mm
01:35 AM 66.2°F19.0°C 37.7°F3.2°C 35% Calm Calm -- 29.80 in1009.1 mb - 0.00 in0.0 mm 0.00 in0.0 mm
01:40 AM 66.2°F19.0°C 38.4°F3.6°C 36% Calm Calm -- 29.80 in1009.1 mb - 0.00 in0.0 mm 0.00 in0.0 mm
01:45 AM 66.2°F19.0°C 38.4°F3.6°C 36% Calm Calm -- 29.80 in1009.1 mb - 0.00 in0.0 mm 0.00 in0.0 mm
01:50 AM 65.9°F18.8°C 38.1°F3.4°C 36% Calm Calm -- 29.80 in1009.1 mb - 0.00 in0.0 mm 0.00 in0.0 mm
01:55 AM 65.8°F18.8°C 38.1°F3.4°C 36% Calm Calm -- 29.80 in1009.1 mb - 0.00 in0.0 mm 0.00 in0.0 mm
02:00 AM 66.1°F18.9°C 37.6°F3.1°C 35% Calm Calm -- 29.80 in1009.1 mb - 0.00 in0.0 mm 0.00 in0.0 mm
02:05 AM 65.8°F18.8°C 37.4°F3.0°C 35% Calm Calm -- 29.80 in1009.1 mb - 0.00 in0.0 mm 0.00 in0.0 mm
02:10 AM 65.7°F18.7°C 37.3°F2.9°C 35% Calm Calm -- 29.80 in1009.1 mb - 0.00 in0.0 mm 0.00 in0.0 mm
02:15 AM 65.5°F18.6°C 37.1°F2.8°C 35% Calm Calm -- 29.80 in1009.1 mb - 0.00 in0.0 mm 0.00 in0.0 mm
02:20 AM 64.9°F18.3°C 37.3°F2.9°C 36% Calm Calm -- 29.80 in1009.1 mb - 0.00 in0.0 mm 0.00 in0.0 mm
02:25 AM 64.6°F18.1°C 37.7°F3.2°C 37% Calm Calm -- 29.80 in1009.1 mb - 0.00 in0.0 mm 0.00 in0.0 mm
02:30 AM 64.7°F18.2°C 37.8°F3.2°C 37% Calm Calm -- 29.80 in1009.1 mb - 0.00 in0.0 mm 0.00 in0.0 mm
02:35 AM 64.6°F18.1°C 37.7°F3.2°C 37% Calm Calm -- 29.80 in1009.1 mb - 0.00 in0.0 mm 0.00 in0.0 mm
02:40 AM 64.6°F18.1°C 37.7°F3.2°C 37% Calm Calm -- 29.80 in1009.1 mb - 0.00 in0.0 mm 0.00 in0.0 mm
02:45 AM 64.6°F18.1°C 38.4°F3.6°C 38% Calm Calm -- 29.80 in1009.1 mb - 0.00 in0.0 mm 0.00 in0.0 mm
02:50 AM 64.9°F18.3°C 38.7°F3.7°C 38% Calm Calm -- 29.80 in1009.1 mb - 0.00 in0.0 mm 0.00 in0.0 mm
02:55 AM 64.9°F18.3°C 38.6°F3.7°C 38% Calm Calm -- 29.80 in1009.1 mb - 0.00 in0.0 mm 0.00 in0.0 mm
03:00 AM 65.3°F18.5°C 38.3°F3.5°C 37% Calm Calm -- 29.79 in1008.8 mb - 0.00 in0.0 mm 0.00 in0.0 mm
03:05 AM 65.5°F18.6°C 38.5°F3.6°C 37% Calm Calm -- 29.79 in1008.8 mb - 0.00 in0.0 mm 0.00 in0.0 mm
03:10 AM 65.7°F18.7°C 38.0°F3.3°C 36% Calm Calm -- 29.79 in1008.8 mb - 0.00 in0.0 mm 0.00 in0.0 mm
03:15 AM 65.1°F18.4°C 38.2°F3.4°C 37% Calm Calm -- 29.79 in1008.8 mb - 0.00 in0.0 mm 0.00 in0.0 mm
03:20 AM 65.7°F18.7°C 38.7°F3.7°C 37% 1.2 mph W1.9 kmh W 1.2 mph1.9 kmh 29.79 in1008.8 mb - 0.00 in0.0 mm 0.00 in0.0 mm
03:25 AM 66.2°F19.0°C 39.1°F3.9°C 37% Calm Calm -- 29.79 in1008.8 mb - 0.00 in0.0 mm 0.00 in0.0 mm
03:30 AM 66.0°F18.9°C 39.0°F3.9°C 37% Calm Calm -- 29.79 in1008.8 mb - 0.00 in0.0 mm 0.00 in0.0 mm
03:35 AM 66.0°F18.9°C 38.3°F3.5°C 36% Calm Calm -- 29.79 in1008.8 mb - 0.00 in0.0 mm 0.00 in0.0 mm
03:40 AM 66.2°F19.0°C 38.4°F3.6°C 36% Calm Calm -- 29.79 in1008.8 mb - 0.00 in0.0 mm 0.00 in0.0 mm
03:45 AM 66.4°F19.1°C 38.6°F3.7°C 36% Calm Calm -- 29.79 in1008.8 mb - 0.00 in0.0 mm 0.00 in0.0 mm
03:50 AM 66.4°F19.1°C 38.6°F3.7°C 36% Calm Calm -- 29.79 in1008.8 mb - 0.00 in0.0 mm 0.00 in0.0 mm
03:55 AM 66.0°F18.9°C 38.3°F3.5°C 36% Calm Calm -- 29.79 in1008.8 mb - 0.00 in0.0 mm 0.00 in0.0 mm
04:00 AM 66.0°F18.9°C 38.3°F3.5°C 36% Calm Calm -- 29.79 in1008.8 mb - 0.00 in0.0 mm 0.00 in0.0 mm
04:05 AM 65.8°F18.8°C 38.1°F3.4°C 36% Calm Calm -- 29.79 in1008.8 mb - 0.00 in0.0 mm 0.00 in0.0 mm
04:10 AM 65.5°F18.6°C 37.8°F3.2°C 36% Calm Calm -- 29.79 in1008.8 mb - 0.00 in0.0 mm 0.00 in0.0 mm
04:15 AM 64.9°F18.3°C 37.3°F2.9°C 36% Calm Calm -- 29.79 in1008.8 mb - 0.00 in0.0 mm 0.00 in0.0 mm
04:20 AM 64.4°F18.0°C 37.6°F3.1°C 37% Calm Calm -- 29.79 in1008.8 mb - 0.00 in0.0 mm 0.00 in0.0 mm
04:25 AM 63.7°F17.6°C 37.6°F3.1°C 38% Calm Calm -- 29.79 in1008.8 mb - 0.00 in0.0 mm 0.00 in0.0 mm
04:30 AM 63.9°F17.7°C 37.8°F3.2°C 38% Calm Calm -- 29.79 in1008.8 mb - 0.00 in0.0 mm 0.00 in0.0 mm
04:35 AM 64.0°F17.8°C 37.9°F3.3°C 38% Calm Calm -- 29.79 in1008.8 mb - 0.00 in0.0 mm 0.00 in0.0 mm
04:40 AM 64.2°F17.9°C 38.0°F3.3°C 38% Calm Calm -- 29.79 in1008.8 mb - 0.00 in0.0 mm 0.00 in0.0 mm
04:45 AM 63.9°F17.7°C 37.8°F3.2°C 38% Calm Calm -- 29.79 in1008.8 mb - 0.00 in0.0 mm 0.00 in0.0 mm
04:50 AM 63.9°F17.7°C 37.8°F3.2°C 38% Calm Calm -- 29.79 in1008.8 mb - 0.00 in0.0 mm 0.00 in0.0 mm
04:55 AM 63.5°F17.5°C 38.1°F3.4°C 39% Calm Calm -- 29.79 in1008.8 mb - 0.00 in0.0 mm 0.00 in0.0 mm
05:00 AM 63.1°F17.3°C 37.7°F3.2°C 39% Calm Calm -- 29.80 in1009.1 mb - 0.00 in0.0 mm 0.00 in0.0 mm
05:05 AM 62.6°F17.0°C 38.6°F3.7°C 41% Calm Calm -- 29.80 in1009.1 mb - 0.00 in0.0 mm 0.00 in0.0 mm
05:10 AM 62.6°F17.0°C 38.5°F3.6°C 41% Calm Calm -- 29.80 in1009.1 mb - 0.00 in0.0 mm 0.00 in0.0 mm
05:15 AM 62.3°F16.8°C 38.2°F3.4°C 41% Calm Calm -- 29.80 in1009.1 mb - 0.00 in0.0 mm 0.00 in0.0 mm
05:20 AM 61.9°F16.6°C 37.9°F3.3°C 41% Calm Calm -- 29.80 in1009.1 mb - 0.00 in0.0 mm 0.00 in0.0 mm
05:25 AM 61.7°F16.5°C 37.7°F3.2°C 41% Calm Calm -- 29.80 in1009.1 mb - 0.00 in0.0 mm 0.00 in0.0 mm
05:30 AM 61.7°F16.5°C 37.7°F3.2°C 41% Calm Calm -- 29.80 in1009.1 mb - 0.00 in0.0 mm 0.00 in0.0 mm
05:35 AM 61.7°F16.5°C 37.7°F3.2°C 41% Calm Calm 2.3 mph3.7 kmh 29.81 in1009.5 mb - 0.00 in0.0 mm 0.00 in0.0 mm
05:40 AM 62.8°F17.1°C 38.1°F3.4°C 40% 1.2 mph SSE1.9 kmh SSE 1.2 mph1.9 kmh 29.81 in1009.5 mb - 0.00 in0.0 mm 0.00 in0.0 mm
05:45 AM 63.1°F17.3°C 38.4°F3.6°C 40% 1.2 mph SE1.9 kmh SE 2.3 mph3.7 kmh 29.81 in1009.5 mb - 0.00 in0.0 mm 0.00 in0.0 mm
05:50 AM 63.7°F17.6°C 38.2°F3.4°C 39% 1.2 mph SE1.9 kmh SE 2.3 mph3.7 kmh 29.81 in1009.5 mb - 0.00 in0.0 mm 0.00 in0.0 mm
05:55 AM 64.4°F18.0°C 38.8°F3.8°C 39% 1.2 mph S1.9 kmh S 2.3 mph3.7 kmh 29.81 in1009.5 mb - 0.00 in0.0 mm 0.00 in0.0 mm
06:00 AM 64.8°F18.2°C 38.6°F3.7°C 38% 1.2 mph S1.9 kmh S 1.2 mph1.9 kmh 29.81 in1009.5 mb - 0.00 in0.0 mm 0.00 in0.0 mm
06:05 AM 65.2°F18.4°C 39.0°F3.9°C 38% 1.2 mph S1.9 kmh S 2.3 mph3.7 kmh 29.81 in1009.5 mb - 0.00 in0.0 mm 0.00 in0.0 mm
06:10 AM 65.3°F18.5°C 39.0°F3.9°C 38% 2.3 mph SSE3.7 kmh SSE 2.3 mph3.7 kmh 29.80 in1009.1 mb - 0.00 in0.0 mm 0.00 in0.0 mm
06:15 AM 65.7°F18.7°C 38.7°F3.7°C 37% Calm Calm -- 29.80 in1009.1 mb - 0.00 in0.0 mm 0.00 in0.0 mm
06:20 AM 65.5°F18.6°C 38.5°F3.6°C 37% Calm Calm -- 29.81 in1009.5 mb - 0.00 in0.0 mm 0.00 in0.0 mm
06:25 AM 65.7°F18.7°C 38.7°F3.7°C 37% Calm Calm -- 29.81 in1009.5 mb - 0.00 in0.0 mm 0.00 in0.0 mm
06:30 AM 65.3°F18.5°C 38.3°F3.5°C 37% Calm Calm -- 29.81 in1009.5 mb - 0.00 in0.0 mm 0.00 in0.0 mm
06:35 AM 64.9°F18.3°C 38.0°F3.3°C 37% Calm Calm -- 29.82 in1009.8 mb - 0.00 in0.0 mm 0.00 in0.0 mm
06:40 AM 64.4°F18.0°C 38.3°F3.5°C 38% Calm Calm -- 29.82 in1009.8 mb - 0.00 in0.0 mm 0.00 in0.0 mm
06:45 AM 64.0°F17.8°C 38.5°F3.6°C 39% Calm Calm -- 29.82 in1009.8 mb - 0.00 in0.0 mm 0.00 in0.0 mm
06:50 AM 63.9°F17.7°C 38.5°F3.6°C 39% Calm Calm -- 29.82 in1009.8 mb - 0.00 in0.0 mm 0.00 in0.0 mm
06:55 AM 63.7°F17.6°C 38.3°F3.5°C 39% Calm Calm -- 29.82 in1009.8 mb - 0.00 in0.0 mm 0.00 in0.0 mm
07:00 AM 63.7°F17.6°C 38.3°F3.5°C 39% Calm Calm -- 29.82 in1009.8 mb - 0.00 in0.0 mm 0.00 in0.0 mm
07:05 AM 63.5°F17.5°C 38.7°F3.7°C 40% Calm Calm -- 29.82 in1009.8 mb - 0.00 in0.0 mm 0.00 in0.0 mm
07:10 AM 63.1°F17.3°C 38.4°F3.6°C 40% Calm Calm -- 29.82 in1009.8 mb - 0.00 in0.0 mm 0.00 in0.0 mm
07:15 AM 63.9°F17.7°C 39.1°F3.9°C 40% Calm Calm 2.3 mph3.7 kmh 29.82 in1009.8 mb - 0.00 in0.0 mm 0.00 in0.0 mm
07:20 AM 64.0°F17.8°C 38.5°F3.6°C 39% Calm Calm -- 29.82 in1009.8 mb - 0.00 in0.0 mm 0.00 in0.0 mm
07:25 AM 64.0°F17.8°C 38.5°F3.6°C 39% Calm Calm -- 29.82 in1009.8 mb - 0.00 in0.0 mm 0.00 in0.0 mm
07:30 AM 64.6°F18.1°C 39.1°F3.9°C 39% Calm Calm -- 29.82 in1009.8 mb - 0.00 in0.0 mm 0.00 in0.0 mm
07:35 AM 65.3°F18.5°C 39.7°F4.3°C 39% Calm Calm -- 29.82 in1009.8 mb - 0.00 in0.0 mm 0.00 in0.0 mm
07:40 AM 65.3°F18.5°C 39.7°F4.3°C 39% Calm Calm -- 29.82 in1009.8 mb - 0.00 in0.0 mm 0.00 in0.0 mm
07:45 AM 65.5°F18.6°C 39.9°F4.4°C 39% Calm Calm -- 29.82 in1009.8 mb - 0.00 in0.0 mm 0.00 in0.0 mm
07:50 AM 65.8°F18.8°C 40.1°F4.5°C 39% Calm Calm -- 29.82 in1009.8 mb - 0.00 in0.0 mm 0.00 in0.0 mm
07:55 AM 66.5°F19.2°C 40.8°F4.9°C 39% 1.2 mph SSE1.9 kmh SSE 1.2 mph1.9 kmh 29.82 in1009.8 mb - 0.00 in0.0 mm 0.00 in0.0 mm
08:00 AM 67.1°F19.5°C 41.3°F5.2°C 39% 1.2 mph S1.9 kmh S 3.5 mph5.6 kmh 29.83 in1010.2 mb - 0.00 in0.0 mm 0.00 in0.0 mm
08:05 AM 68.2°F20.1°C 41.6°F5.3°C 38% 3.5 mph SSE5.6 kmh SSE 4.6 mph7.4 kmh 29.83 in1010.2 mb - 0.00 in0.0 mm 0.00 in0.0 mm
08:10 AM 71.0°F21.7°C 41.2°F5.1°C 34% 3.5 mph SE5.6 kmh SE 3.5 mph5.6 kmh 29.83 in1010.2 mb - 0.00 in0.0 mm 0.00 in0.0 mm
08:15 AM 73.4°F23.0°C 41.7°F5.4°C 32% 2.3 mph SSE3.7 kmh SSE 3.5 mph5.6 kmh 29.83 in1010.2 mb - 0.00 in0.0 mm 0.00 in0.0 mm
08:20 AM 74.5°F23.6°C 41.9°F5.5°C 31% 3.5 mph SE5.6 kmh SE 2.3 mph3.7 kmh 29.84 in1010.5 mb - 0.00 in0.0 mm 0.00 in0.0 mm
08:25 AM 75.6°F24.2°C 41.9°F5.5°C 30% 2.3 mph SE3.7 kmh SE 3.5 mph5.6 kmh 29.84 in1010.5 mb - 0.00 in0.0 mm 0.00 in0.0 mm
08:30 AM 76.3°F24.6°C 41.7°F5.4°C 29% 3.5 mph SSE5.6 kmh SSE 4.6 mph7.4 kmh 29.84 in1010.5 mb - 0.00 in0.0 mm 0.00 in0.0 mm
08:35 AM 76.5°F24.7°C 41.9°F5.5°C 29% 1.2 mph ESE1.9 kmh ESE 4.6 mph7.4 kmh 29.84 in1010.5 mb - 0.00 in0.0 mm 0.00 in0.0 mm
08:40 AM 77.5°F25.3°C 41.8°F5.4°C 28% 3.5 mph S5.6 kmh S 3.5 mph5.6 kmh 29.84 in1010.5 mb - 0.00 in0.0 mm 0.00 in0.0 mm
08:45 AM 77.7°F25.4°C 42.0°F5.6°C 28% Calm Calm -- 29.84 in1010.5 mb - 0.00 in0.0 mm 0.00 in0.0 mm
08:50 AM 77.7°F25.4°C 41.0°F5.0°C 27% 2.3 mph SE3.7 kmh SE 2.3 mph3.7 kmh 29.84 in1010.5 mb - 0.00 in0.0 mm 0.00 in0.0 mm
08:55 AM 77.7°F25.4°C 41.0°F5.0°C 27% 3.5 mph S5.6 kmh S 3.5 mph5.6 kmh 29.84 in1010.5 mb - 0.00 in0.0 mm 0.00 in0.0 mm
09:00 AM 77.7°F25.4°C 41.0°F5.0°C 27% 5.8 mph SE9.3 kmh SE 6.9 mph11.1 kmh 29.85 in1010.8 mb - 0.00 in0.0 mm 0.00 in0.0 mm
09:05 AM 77.5°F25.3°C 40.9°F4.9°C 27% 2.3 mph S3.7 kmh S 4.6 mph7.4 kmh 29.85 in1010.8 mb - 0.00 in0.0 mm 0.00 in0.0 mm
09:10 AM 77.5°F25.3°C 40.9°F4.9°C 27% 2.3 mph SSE3.7 kmh SSE 3.5 mph5.6 kmh 29.85 in1010.8 mb - 0.00 in0.0 mm 0.00 in0.0 mm
09:15 AM 78.3°F25.7°C 41.6°F5.3°C 27% 3.5 mph SW5.6 kmh SW 5.8 mph9.3 kmh 29.85 in1010.8 mb - 0.00 in0.0 mm 0.00 in0.0 mm
09:20 AM 77.5°F25.3°C 40.9°F4.9°C 27% 3.5 mph S5.6 kmh S 3.5 mph5.6 kmh 29.85 in1010.8 mb - 0.00 in0.0 mm 0.00 in0.0 mm
09:25 AM 77.9°F25.5°C 41.2°F5.1°C 27% 4.6 mph S7.4 kmh S 5.8 mph9.3 kmh 29.84 in1010.5 mb - 0.00 in0.0 mm 0.00 in0.0 mm
09:30 AM 78.1°F25.6°C 41.4°F5.2°C 27% 3.5 mph SW5.6 kmh SW 5.8 mph9.3 kmh 29.84 in1010.5 mb - 0.00 in0.0 mm 0.00 in0.0 mm
09:35 AM 77.9°F25.5°C 41.2°F5.1°C 27% 4.6 mph SSW7.4 kmh SSW 4.6 mph7.4 kmh 29.84 in1010.5 mb - 0.00 in0.0 mm 0.00 in0.0 mm
09:40 AM 78.4°F25.8°C 41.6°F5.3°C 27% 2.3 mph S3.7 kmh S 2.3 mph3.7 kmh 29.84 in1010.5 mb - 0.00 in0.0 mm 0.00 in0.0 mm
09:45 AM 78.8°F26.0°C 42.0°F5.6°C 27% 2.3 mph SSE3.7 kmh SSE 4.6 mph7.4 kmh 29.83 in1010.2 mb - 0.00 in0.0 mm 0.00 in0.0 mm
09:50 AM 78.7°F25.9°C 40.9°F4.9°C 26% 5.8 mph S9.3 kmh S 6.9 mph11.1 kmh 29.83 in1010.2 mb - 0.00 in0.0 mm 0.00 in0.0 mm
09:55 AM 78.4°F25.8°C 40.7°F4.8°C 26% 5.8 mph SW9.3 kmh SW 5.8 mph9.3 kmh 29.83 in1010.2 mb - 0.00 in0.0 mm 0.00 in0.0 mm
10:00 AM 78.3°F25.7°C 40.6°F4.8°C 26% 4.6 mph SSW7.4 kmh SSW 6.9 mph11.1 kmh 29.84 in1010.5 mb - 0.00 in0.0 mm 0.00 in0.0 mm
10:05 AM 79.0°F26.1°C 42.1°F5.6°C 27% 5.8 mph SW9.3 kmh SW 6.9 mph11.1 kmh 29.84 in1010.5 mb - 0.00 in0.0 mm 0.00 in0.0 mm
10:10 AM 78.1°F25.6°C 41.4°F5.2°C 27% 3.5 mph SW5.6 kmh SW 3.5 mph5.6 kmh 29.85 in1010.8 mb - 0.00 in0.0 mm 0.00 in0.0 mm
10:15 AM 78.6°F25.9°C 41.8°F5.4°C 27% 2.3 mph SSW3.7 kmh SSW 5.8 mph9.3 kmh 29.85 in1010.8 mb - 0.00 in0.0 mm 0.00 in0.0 mm
10:20 AM 79.2°F26.2°C 42.3°F5.7°C 27% 4.6 mph SW7.4 kmh SW 6.9 mph11.1 kmh 29.85 in1010.8 mb - 0.00 in0.0 mm 0.00 in0.0 mm
10:25 AM 78.7°F25.9°C 42.8°F6.0°C 28% 3.5 mph S5.6 kmh S 3.5 mph5.6 kmh 29.85 in1010.8 mb - 0.00 in0.0 mm 0.00 in0.0 mm
10:30 AM 78.9°F26.1°C 43.1°F6.2°C 28% 3.5 mph WSW5.6 kmh WSW 6.9 mph11.1 kmh 29.85 in1010.8 mb - 0.00 in0.0 mm 0.00 in0.0 mm
10:35 AM 79.2°F26.2°C 43.3°F6.3°C 28% 4.6 mph SSW7.4 kmh SSW 5.8 mph9.3 kmh 29.85 in1010.8 mb - 0.00 in0.0 mm 0.00 in0.0 mm
10:40 AM 79.0°F26.1°C 44.0°F6.7°C 29% 6.9 mph SSW11.1 kmh SSW 5.8 mph9.3 kmh 29.85 in1010.8 mb - 0.00 in0.0 mm 0.00 in0.0 mm
10:45 AM 78.9°F26.1°C 43.9°F6.6°C 29% 4.6 mph SSW7.4 kmh SSW 3.5 mph5.6 kmh 29.85 in1010.8 mb - 0.00 in0.0 mm 0.00 in0.0 mm
10:50 AM 80.1°F26.7°C 45.0°F7.2°C 29% 3.5 mph WSW5.6 kmh WSW 5.8 mph9.3 kmh 29.85 in1010.8 mb - 0.00 in0.0 mm 0.00 in0.0 mm
10:55 AM 79.6°F26.4°C 44.5°F6.9°C 29% Calm Calm 4.6 mph7.4 kmh 29.85 in1010.8 mb - 0.00 in0.0 mm 0.00 in0.0 mm
11:00 AM 81.2°F27.3°C 45.0°F7.2°C 28% 2.3 mph W3.7 kmh W 3.5 mph5.6 kmh 29.85 in1010.8 mb - 0.00 in0.0 mm 0.00 in0.0 mm
11:05 AM 81.9°F27.7°C 45.6°F7.6°C 28% 6.9 mph S11.1 kmh S 8.1 mph13.0 kmh 29.85 in1010.8 mb - 0.00 in0.0 mm 0.00 in0.0 mm
11:10 AM 80.7°F27.1°C 44.6°F7.0°C 28% 2.3 mph S3.7 kmh S 9.2 mph14.8 kmh 29.85 in1010.8 mb - 0.00 in0.0 mm 0.00 in0.0 mm
11:15 AM 81.4°F27.4°C 44.2°F6.8°C 27% 4.6 mph WSW7.4 kmh WSW 5.8 mph9.3 kmh 29.85 in1010.8 mb - 0.00 in0.0 mm 0.00 in0.0 mm
11:20 AM 81.0°F27.2°C 43.8°F6.6°C 27% 6.9 mph SSW11.1 kmh SSW 6.9 mph11.1 kmh 29.85 in1010.8 mb - 0.00 in0.0 mm 0.00 in0.0 mm
11:25 AM 81.3°F27.4°C 44.1°F6.7°C 27% 8.1 mph S13.0 kmh S 10.4 mph16.7 kmh 29.85 in1010.8 mb - 0.00 in0.0 mm 0.00 in0.0 mm
11:30 AM 81.7°F27.6°C 44.5°F6.9°C 27% 4.6 mph S7.4 kmh S 6.9 mph11.1 kmh 29.85 in1010.8 mb - 0.00 in0.0 mm 0.00 in0.0 mm
11:35 AM 81.7°F27.6°C 44.4°F6.9°C 27% 5.8 mph SSE9.3 kmh SSE 6.9 mph11.1 kmh 29.84 in1010.5 mb - 0.00 in0.0 mm 0.00 in0.0 mm
11:40 AM 81.9°F27.7°C 43.6°F6.4°C 26% 4.6 mph SSW7.4 kmh SSW 4.6 mph7.4 kmh 29.84 in1010.5 mb - 0.00 in0.0 mm 0.00 in0.0 mm
11:45 AM 81.6°F27.6°C 43.4°F6.3°C 26% 4.6 mph S7.4 kmh S 8.1 mph13.0 kmh 29.84 in1010.5 mb - 0.00 in0.0 mm 0.00 in0.0 mm
11:50 AM 81.3°F27.4°C 43.1°F6.2°C 26% 6.9 mph SSW11.1 kmh SSW 8.1 mph13.0 kmh 29.84 in1010.5 mb - 0.00 in0.0 mm 0.00 in0.0 mm
11:55 AM 81.9°F27.7°C 43.7°F6.5°C 26% 5.8 mph SW9.3 kmh SW 9.2 mph14.8 kmh 29.84 in1010.5 mb - 0.00 in0.0 mm 0.00 in0.0 mm
12:00 PM 81.5°F27.5°C 43.3°F6.3°C 26% 6.9 mph SW11.1 kmh SW 6.9 mph11.1 kmh 29.83 in1010.2 mb - 0.00 in0.0 mm 0.00 in0.0 mm
12:05 PM 81.8°F27.7°C 43.5°F6.4°C 26% 8.1 mph S13.0 kmh S 10.4 mph16.7 kmh 29.83 in1010.2 mb - 0.00 in0.0 mm 0.00 in0.0 mm
12:10 PM 82.2°F27.9°C 43.9°F6.6°C 26% 4.6 mph S7.4 kmh S 3.5 mph5.6 kmh 29.82 in1009.8 mb - 0.00 in0.0 mm 0.00 in0.0 mm
12:15 PM 83.1°F28.4°C 44.7°F7.1°C 26% 6.9 mph SW11.1 kmh SW 9.2 mph14.8 kmh 29.82 in1009.8 mb - 0.00 in0.0 mm 0.00 in0.0 mm
12:20 PM 82.5°F28.1°C 44.2°F6.8°C 26% 4.6 mph SW7.4 kmh SW 8.1 mph13.0 kmh 29.82 in1009.8 mb - 0.00 in0.0 mm 0.00 in0.0 mm
12:25 PM 82.0°F27.8°C 43.7°F6.5°C 26% 6.9 mph SW11.1 kmh SW 9.2 mph14.8 kmh 29.82 in1009.8 mb - 0.00 in0.0 mm 0.00 in0.0 mm
12:30 PM 82.5°F28.1°C 44.2°F6.8°C 26% 6.9 mph SW11.1 kmh SW 9.2 mph14.8 kmh 29.82 in1009.8 mb - 0.00 in0.0 mm 0.00 in0.0 mm
12:35 PM 82.8°F28.2°C 44.4°F6.9°C 26% 4.6 mph S7.4 kmh S 6.9 mph11.1 kmh 29.81 in1009.5 mb - 0.00 in0.0 mm 0.00 in0.0 mm
12:40 PM 83.8°F28.8°C 45.3°F7.4°C 26% 6.9 mph S11.1 kmh S 9.2 mph14.8 kmh 29.81 in1009.5 mb - 0.00 in0.0 mm 0.00 in0.0 mm
12:45 PM 82.9°F28.3°C 44.5°F6.9°C 26% 8.1 mph SW13.0 kmh SW 8.1 mph13.0 kmh 29.79 in1008.8 mb - 0.00 in0.0 mm 0.00 in0.0 mm
12:50 PM 82.9°F28.3°C 44.5°F6.9°C 26% 8.1 mph SW13.0 kmh SW 8.1 mph13.0 kmh 29.79 in1008.8 mb - 0.00 in0.0 mm 0.00 in0.0 mm
12:55 PM 83.7°F28.7°C 45.1°F7.3°C 26% 4.6 mph SSW7.4 kmh SSW 8.1 mph13.0 kmh 29.79 in1008.8 mb - 0.00 in0.0 mm 0.00 in0.0 mm
01:00 PM 83.8°F28.8°C 45.3°F7.4°C 26% 8.1 mph S13.0 kmh S 8.1 mph13.0 kmh 29.78 in1008.5 mb - 0.00 in0.0 mm 0.00 in0.0 mm
01:05 PM 84.1°F28.9°C 45.5°F7.5°C 26% 5.8 mph S9.3 kmh S 10.4 mph16.7 kmh 29.78 in1008.5 mb - 0.00 in0.0 mm 0.00 in0.0 mm
01:10 PM 84.4°F29.1°C 45.8°F7.7°C 26% 4.6 mph S7.4 kmh S 8.1 mph13.0 kmh 29.78 in1008.5 mb - 0.00 in0.0 mm 0.00 in0.0 mm
01:15 PM 84.9°F29.4°C 46.2°F7.9°C 26% 8.1 mph SSW13.0 kmh SSW 10.4 mph16.7 kmh 29.78 in1008.5 mb - 0.00 in0.0 mm 0.00 in0.0 mm
01:20 PM 83.7°F28.7°C 46.1°F7.8°C 27% 9.2 mph S14.8 kmh S 10.4 mph16.7 kmh 29.78 in1008.5 mb - 0.00 in0.0 mm 0.00 in0.0 mm
01:25 PM 84.1°F28.9°C 47.5°F8.6°C 28% 4.6 mph S7.4 kmh S 6.9 mph11.1 kmh 29.77 in1008.1 mb - 0.00 in0.0 mm 0.00 in0.0 mm
01:30 PM 84.7°F29.3°C 47.0°F8.3°C 27% 6.9 mph SE11.1 kmh SE 8.1 mph13.0 kmh 29.77 in1008.1 mb - 0.00 in0.0 mm 0.00 in0.0 mm
01:35 PM 83.9°F28.8°C 46.4°F8.0°C 27% 6.9 mph SW11.1 kmh SW 6.9 mph11.1 kmh 29.77 in1008.1 mb - 0.00 in0.0 mm 0.00 in0.0 mm
01:40 PM 84.5°F29.2°C 46.8°F8.2°C 27% 8.1 mph SW13.0 kmh SW 10.4 mph16.7 kmh 29.77 in1008.1 mb - 0.00 in0.0 mm 0.00 in0.0 mm
01:45 PM 84.4°F29.1°C 47.7°F8.7°C 28% 6.9 mph SSE11.1 kmh SSE 10.4 mph16.7 kmh 29.76 in1007.8 mb - 0.00 in0.0 mm 0.00 in0.0 mm
01:50 PM 85.3°F29.6°C 48.5°F9.2°C 28% 6.9 mph SSE11.1 kmh SSE 10.4 mph16.7 kmh 29.76 in1007.8 mb - 0.00 in0.0 mm 0.00 in0.0 mm
01:55 PM 84.5°F29.2°C 47.8°F8.8°C 28% 6.9 mph S11.1 kmh S 6.9 mph11.1 kmh 29.76 in1007.8 mb - 0.00 in0.0 mm 0.00 in0.0 mm
02:00 PM 84.2°F29.0°C 48.5°F9.2°C 29% 10.4 mph S16.7 kmh S 12.7 mph20.4 kmh 29.76 in1007.8 mb - 0.00 in0.0 mm 0.00 in0.0 mm
02:05 PM 83.8°F28.8°C 48.1°F8.9°C 29% 6.9 mph ESE11.1 kmh ESE 9.2 mph14.8 kmh 29.76 in1007.8 mb - 0.00 in0.0 mm 0.00 in0.0 mm
02:10 PM 84.3°F29.1°C 48.6°F9.2°C 29% 4.6 mph SSE7.4 kmh SSE 6.9 mph11.1 kmh 29.75 in1007.5 mb - 0.00 in0.0 mm 0.00 in0.0 mm
02:15 PM 84.3°F29.1°C 48.6°F9.2°C 29% 8.1 mph WSW13.0 kmh WSW 8.1 mph13.0 kmh 29.75 in1007.5 mb - 0.00 in0.0 mm 0.00 in0.0 mm
02:20 PM 83.4°F28.6°C 48.7°F9.3°C 30% 10.4 mph SE16.7 kmh SE 13.8 mph22.2 kmh 29.75 in1007.5 mb - 0.00 in0.0 mm 0.00 in0.0 mm
02:25 PM 83.2°F28.4°C 48.5°F9.2°C 30% 8.1 mph SE13.0 kmh SE 13.8 mph22.2 kmh 29.75 in1007.5 mb - 0.00 in0.0 mm 0.00 in0.0 mm
02:30 PM 83.9°F28.8°C 49.1°F9.5°C 30% 6.9 mph SE11.1 kmh SE 9.2 mph14.8 kmh 29.75 in1007.5 mb - 0.00 in0.0 mm 0.00 in0.0 mm
02:35 PM 83.3°F28.5°C 48.6°F9.2°C 30% 10.4 mph SSE16.7 kmh SSE 10.4 mph16.7 kmh 29.75 in1007.5 mb - 0.00 in0.0 mm 0.00 in0.0 mm
02:40 PM 83.5°F28.6°C 48.8°F9.3°C 30% 5.8 mph WSW9.3 kmh WSW 8.1 mph13.0 kmh 29.75 in1007.5 mb - 0.00 in0.0 mm 0.00 in0.0 mm
02:45 PM 83.0°F28.3°C 49.3°F9.6°C 31% 10.4 mph S16.7 kmh S 12.7 mph20.4 kmh 29.74 in1007.1 mb - 0.00 in0.0 mm 0.00 in0.0 mm
02:50 PM 83.3°F28.5°C 48.7°F9.3°C 30% 9.2 mph SE14.8 kmh SE 13.8 mph22.2 kmh 29.74 in1007.1 mb - 0.00 in0.0 mm 0.00 in0.0 mm
02:55 PM 82.7°F28.2°C 48.1°F8.9°C 30% 9.2 mph S14.8 kmh S 10.4 mph16.7 kmh 29.74 in1007.1 mb - 0.00 in0.0 mm 0.00 in0.0 mm
03:00 PM 82.8°F28.2°C 48.2°F9.0°C 30% 9.2 mph SSW14.8 kmh SSW 13.8 mph22.2 kmh 29.74 in1007.1 mb - 0.00 in0.0 mm 0.00 in0.0 mm
03:05 PM 82.8°F28.2°C 48.2°F9.0°C 30% 6.9 mph S11.1 kmh S 8.1 mph13.0 kmh 29.74 in1007.1 mb - 0.00 in0.0 mm 0.00 in0.0 mm
03:10 PM 82.9°F28.3°C 49.2°F9.6°C 31% 8.1 mph SE13.0 kmh SE 9.2 mph14.8 kmh 29.74 in1007.1 mb - 0.00 in0.0 mm 0.00 in0.0 mm
03:15 PM 82.9°F28.3°C 49.2°F9.6°C 31% 8.1 mph WSW13.0 kmh WSW 11.5 mph18.5 kmh 29.74 in1007.1 mb - 0.00 in0.0 mm 0.00 in0.0 mm
03:20 PM 83.8°F28.8°C 49.9°F9.9°C 31% 6.9 mph S11.1 kmh S 11.5 mph18.5 kmh 29.74 in1007.1 mb - 0.00 in0.0 mm 0.00 in0.0 mm
03:25 PM 82.2°F27.9°C 48.5°F9.2°C 31% 9.2 mph S14.8 kmh S 11.5 mph18.5 kmh 29.74 in1007.1 mb - 0.00 in0.0 mm 0.00 in0.0 mm
03:30 PM 83.1°F28.4°C 49.3°F9.6°C 31% 9.2 mph S14.8 kmh S 11.5 mph18.5 kmh 29.74 in1007.1 mb - 0.00 in0.0 mm 0.00 in0.0 mm
03:35 PM 82.5°F28.1°C 49.7°F9.8°C 32% 6.9 mph SSW11.1 kmh SSW 10.4 mph16.7 kmh 29.75 in1007.5 mb - 0.00 in0.0 mm 0.00 in0.0 mm
03:40 PM 82.4°F28.0°C 49.6°F9.8°C 32% 8.1 mph S13.0 kmh S 11.5 mph18.5 kmh 29.75 in1007.5 mb - 0.00 in0.0 mm 0.00 in0.0 mm
03:45 PM 82.2°F27.9°C 49.4°F9.7°C 32% 9.2 mph WSW14.8 kmh WSW 10.4 mph16.7 kmh 29.75 in1007.5 mb - 0.00 in0.0 mm 0.00 in0.0 mm
03:50 PM 82.2°F27.9°C 49.4°F9.7°C 32% 6.9 mph SW11.1 kmh SW 10.4 mph16.7 kmh 29.75 in1007.5 mb - 0.00 in0.0 mm 0.00 in0.0 mm
03:55 PM 81.5°F27.5°C 48.8°F9.3°C 32% 6.9 mph SSW11.1 kmh SSW 10.4 mph16.7 kmh 29.75 in1007.5 mb - 0.00 in0.0 mm 0.00 in0.0 mm
04:00 PM 81.6°F27.6°C 48.9°F9.4°C 32% 6.9 mph S11.1 kmh S 9.2 mph14.8 kmh 29.75 in1007.5 mb - 0.00 in0.0 mm 0.00 in0.0 mm
04:05 PM 81.4°F27.4°C 49.5°F9.7°C 33% 5.8 mph S9.3 kmh S 9.2 mph14.8 kmh 29.75 in1007.5 mb - 0.00 in0.0 mm 0.00 in0.0 mm
04:10 PM 81.1°F27.3°C 49.3°F9.6°C 33% 6.9 mph S11.1 kmh S 9.2 mph14.8 kmh 29.74 in1007.1 mb - 0.00 in0.0 mm 0.00 in0.0 mm
04:15 PM 80.6°F27.0°C 49.6°F9.8°C 34% 8.1 mph SSW13.0 kmh SSW 9.2 mph14.8 kmh 29.74 in1007.1 mb - 0.00 in0.0 mm 0.00 in0.0 mm
04:20 PM 81.0°F27.2°C 50.0°F10.0°C 34% 5.8 mph SSW9.3 kmh SSW 8.1 mph13.0 kmh 29.73 in1006.8 mb - 0.00 in0.0 mm 0.00 in0.0 mm
04:25 PM 80.3°F26.8°C 49.4°F9.7°C 34% 5.8 mph SSW9.3 kmh SSW 6.9 mph11.1 kmh 29.73 in1006.8 mb - 0.00 in0.0 mm 0.00 in0.0 mm
04:30 PM 80.4°F26.9°C 49.5°F9.7°C 34% 5.8 mph SSW9.3 kmh SSW 11.5 mph18.5 kmh 29.73 in1006.8 mb - 0.00 in0.0 mm 0.00 in0.0 mm
04:35 PM 80.1°F26.7°C 49.2°F9.6°C 34% 8.1 mph SW13.0 kmh SW 10.4 mph16.7 kmh 29.73 in1006.8 mb - 0.00 in0.0 mm 0.00 in0.0 mm
04:40 PM 80.2°F26.8°C 49.3°F9.6°C 34% 5.8 mph S9.3 kmh S 5.8 mph9.3 kmh 29.73 in1006.8 mb - 0.00 in0.0 mm 0.00 in0.0 mm
04:45 PM 80.1°F26.7°C 49.2°F9.6°C 34% 5.8 mph SW9.3 kmh SW 5.8 mph9.3 kmh 29.74 in1007.1 mb - 0.00 in0.0 mm 0.00 in0.0 mm
04:50 PM 79.9°F26.6°C 49.0°F9.4°C 34% 5.8 mph S9.3 kmh S 11.5 mph18.5 kmh 29.74 in1007.1 mb - 0.00 in0.0 mm 0.00 in0.0 mm
04:55 PM 79.5°F26.4°C 48.7°F9.3°C 34% 6.9 mph SSE11.1 kmh SSE 10.4 mph16.7 kmh 29.74 in1007.1 mb - 0.00 in0.0 mm 0.00 in0.0 mm
05:00 PM 79.7°F26.5°C 48.8°F9.3°C 34% 5.8 mph S9.3 kmh S 6.9 mph11.1 kmh 29.73 in1006.8 mb - 0.00 in0.0 mm 0.00 in0.0 mm
05:05 PM 79.7°F26.5°C 48.8°F9.3°C 34% 5.8 mph S9.3 kmh S 8.1 mph13.0 kmh 29.73 in1006.8 mb - 0.00 in0.0 mm 0.00 in0.0 mm
05:10 PM 79.5°F26.4°C 48.7°F9.3°C 34% 5.8 mph S9.3 kmh S 8.1 mph13.0 kmh 29.74 in1007.1 mb - 0.00 in0.0 mm 0.00 in0.0 mm
05:15 PM 79.3°F26.3°C 48.5°F9.2°C 34% 6.9 mph SSW11.1 kmh SSW 9.2 mph14.8 kmh 29.74 in1007.1 mb - 0.00 in0.0 mm 0.00 in0.0 mm
05:20 PM 79.2°F26.2°C 48.4°F9.1°C 34% 4.6 mph SSE7.4 kmh SSE 6.9 mph11.1 kmh 29.73 in1006.8 mb - 0.00 in0.0 mm 0.00 in0.0 mm
05:25 PM 79.0°F26.1°C 48.2°F9.0°C 34% 3.5 mph SSW5.6 kmh SSW 5.8 mph9.3 kmh 29.73 in1006.8 mb - 0.00 in0.0 mm 0.00 in0.0 mm
05:30 PM 78.6°F25.9°C 47.9°F8.8°C 34% 6.9 mph SSE11.1 kmh SSE 9.2 mph14.8 kmh 29.73 in1006.8 mb - 0.00 in0.0 mm 0.00 in0.0 mm
05:35 PM 78.4°F25.8°C 47.7°F8.7°C 34% 6.9 mph SSW11.1 kmh SSW 6.9 mph11.1 kmh 29.73 in1006.8 mb - 0.00 in0.0 mm 0.00 in0.0 mm
05:40 PM 78.2°F25.7°C 47.5°F8.6°C 34% 5.8 mph SSW9.3 kmh SSW 6.9 mph11.1 kmh 29.73 in1006.8 mb - 0.00 in0.0 mm 0.00 in0.0 mm
05:45 PM 77.9°F25.5°C 47.3°F8.5°C 34% 6.9 mph SSW11.1 kmh SSW 8.1 mph13.0 kmh 29.73 in1006.8 mb - 0.00 in0.0 mm 0.00 in0.0 mm
05:50 PM 77.7°F25.4°C 47.1°F8.4°C 34% 4.6 mph S7.4 kmh S 10.4 mph16.7 kmh 29.73 in1006.8 mb - 0.00 in0.0 mm 0.00 in0.0 mm
05:55 PM 77.5°F25.3°C 46.1°F7.8°C 33% 8.1 mph S13.0 kmh S 10.4 mph16.7 kmh 29.73 in1006.8 mb - 0.00 in0.0 mm 0.00 in0.0 mm
06:00 PM 77.4°F25.2°C 46.0°F7.8°C 33% 8.1 mph S13.0 kmh S 12.7 mph20.4 kmh 29.74 in1007.1 mb - 0.00 in0.0 mm 0.00 in0.0 mm
06:05 PM 77.3°F25.2°C 45.9°F7.7°C 33% 4.6 mph S7.4 kmh S 5.8 mph9.3 kmh 29.74 in1007.1 mb - 0.00 in0.0 mm 0.00 in0.0 mm
06:10 PM 77.0°F25.0°C 45.7°F7.6°C 33% 6.9 mph S11.1 kmh S 10.4 mph16.7 kmh 29.74 in1007.1 mb - 0.00 in0.0 mm 0.00 in0.0 mm
06:15 PM 76.8°F24.9°C 45.5°F7.5°C 33% 5.8 mph S9.3 kmh S 8.1 mph13.0 kmh 29.74 in1007.1 mb - 0.00 in0.0 mm 0.00 in0.0 mm
06:20 PM 76.6°F24.8°C 45.3°F7.4°C 33% 4.6 mph WSW7.4 kmh WSW 8.1 mph13.0 kmh 29.75 in1007.5 mb - 0.00 in0.0 mm 0.00 in0.0 mm
06:25 PM 76.5°F24.7°C 45.2°F7.3°C 33% 5.8 mph SSW9.3 kmh SSW 5.8 mph9.3 kmh 29.75 in1007.5 mb - 0.00 in0.0 mm 0.00 in0.0 mm
06:30 PM 76.3°F24.6°C 45.9°F7.7°C 34% 4.6 mph WSW7.4 kmh WSW 5.8 mph9.3 kmh 29.75 in1007.5 mb - 0.00 in0.0 mm 0.00 in0.0 mm
06:35 PM 76.1°F24.5°C 45.7°F7.6°C 34% 5.8 mph SSW9.3 kmh SSW 9.2 mph14.8 kmh 29.75 in1007.5 mb - 0.00 in0.0 mm 0.00 in0.0 mm
06:40 PM 75.9°F24.4°C 46.3°F7.9°C 35% 5.8 mph SW9.3 kmh SW 6.9 mph11.1 kmh 29.75 in1007.5 mb - 0.00 in0.0 mm 0.00 in0.0 mm
06:45 PM 75.7°F24.3°C 46.1°F7.8°C 35% 3.5 mph SSW5.6 kmh SSW 5.8 mph9.3 kmh 29.75 in1007.5 mb - 0.00 in0.0 mm 0.00 in0.0 mm
06:50 PM 75.6°F24.2°C 46.0°F7.8°C 35% 5.8 mph SW9.3 kmh SW 6.9 mph11.1 kmh 29.75 in1007.5 mb - 0.00 in0.0 mm 0.00 in0.0 mm
06:55 PM 75.4°F24.1°C 45.8°F7.7°C 35% 5.8 mph SSW9.3 kmh SSW 8.1 mph13.0 kmh 29.75 in1007.5 mb - 0.00 in0.0 mm 0.00 in0.0 mm
07:00 PM 75.2°F24.0°C 46.4°F8.0°C 36% 2.3 mph S3.7 kmh S 1.2 mph1.9 kmh 29.75 in1007.5 mb - 0.00 in0.0 mm 0.00 in0.0 mm
07:05 PM 74.9°F23.8°C 46.1°F7.8°C 36% 3.5 mph S5.6 kmh S 4.6 mph7.4 kmh 29.75 in1007.5 mb - 0.00 in0.0 mm 0.00 in0.0 mm
07:10 PM 74.8°F23.8°C 46.1°F7.8°C 36% 3.5 mph S5.6 kmh S 4.6 mph7.4 kmh 29.77 in1008.1 mb - 0.00 in0.0 mm 0.00 in0.0 mm
07:15 PM 74.7°F23.7°C 46.0°F7.8°C 36% 3.5 mph SW5.6 kmh SW 4.6 mph7.4 kmh 29.77 in1008.1 mb - 0.00 in0.0 mm 0.00 in0.0 mm
07:20 PM 74.5°F23.6°C 46.5°F8.1°C 37% 3.5 mph SSW5.6 kmh SSW 4.6 mph7.4 kmh 29.76 in1007.8 mb - 0.00 in0.0 mm 0.00 in0.0 mm
07:25 PM 74.5°F23.6°C 46.5°F8.1°C 37% 3.5 mph SSW5.6 kmh SSW 4.6 mph7.4 kmh 29.76 in1007.8 mb - 0.00 in0.0 mm 0.00 in0.0 mm
07:30 PM 74.3°F23.5°C 46.3°F7.9°C 37% 3.5 mph S5.6 kmh S 3.5 mph5.6 kmh 29.76 in1007.8 mb - 0.00 in0.0 mm 0.00 in0.0 mm
07:35 PM 74.1°F23.4°C 46.2°F7.9°C 37% 2.3 mph SSE3.7 kmh SSE 3.5 mph5.6 kmh 29.76 in1007.8 mb - 0.00 in0.0 mm 0.00 in0.0 mm
07:40 PM 73.9°F23.3°C 46.0°F7.8°C 37% 4.6 mph SSW7.4 kmh SSW 5.8 mph9.3 kmh 29.76 in1007.8 mb - 0.00 in0.0 mm 0.00 in0.0 mm
07:45 PM 73.9°F23.3°C 45.9°F7.7°C 37% 3.5 mph S5.6 kmh S 4.6 mph7.4 kmh 29.76 in1007.8 mb - 0.00 in0.0 mm 0.00 in0.0 mm
07:50 PM 73.8°F23.2°C 45.9°F7.7°C 37% 2.3 mph S3.7 kmh S 3.5 mph5.6 kmh 29.76 in1007.8 mb - 0.00 in0.0 mm 0.00 in0.0 mm
07:55 PM 73.4°F23.0°C 45.5°F7.5°C 37% 2.3 mph SSW3.7 kmh SSW 3.5 mph5.6 kmh 29.76 in1007.8 mb - 0.00 in0.0 mm 0.00 in0.0 mm
08:00 PM 73.2°F22.9°C 45.4°F7.4°C 37% 3.5 mph SSW5.6 kmh SSW 3.5 mph5.6 kmh 29.77 in1008.1 mb - 0.00 in0.0 mm 0.00 in0.0 mm
08:05 PM 73.0°F22.8°C 45.2°F7.3°C 37% 2.3 mph SSW3.7 kmh SSW 2.3 mph3.7 kmh 29.77 in1008.1 mb - 0.00 in0.0 mm 0.00 in0.0 mm
08:10 PM 72.9°F22.7°C 45.1°F7.3°C 37% Calm Calm 1.2 mph1.9 kmh 29.77 in1008.1 mb - 0.00 in0.0 mm 0.00 in0.0 mm
08:15 PM 72.7°F22.6°C 45.6°F7.6°C 38% 2.3 mph SSW3.7 kmh SSW 3.5 mph5.6 kmh 29.77 in1008.1 mb - 0.00 in0.0 mm 0.00 in0.0 mm
08:20 PM 72.5°F22.5°C 45.4°F7.4°C 38% 1.2 mph S1.9 kmh S 2.3 mph3.7 kmh 29.77 in1008.1 mb - 0.00 in0.0 mm 0.00 in0.0 mm
08:25 PM 72.5°F22.5°C 45.4°F7.4°C 38% Calm Calm 2.3 mph3.7 kmh 29.77 in1008.1 mb - 0.00 in0.0 mm 0.00 in0.0 mm
08:30 PM 72.3°F22.4°C 45.3°F7.4°C 38% 2.3 mph S3.7 kmh S 2.3 mph3.7 kmh 29.77 in1008.1 mb - 0.00 in0.0 mm 0.00 in0.0 mm
08:35 PM 72.1°F22.3°C 45.1°F7.3°C 38% 2.3 mph SSW3.7 kmh SSW 2.3 mph3.7 kmh 29.78 in1008.5 mb - 0.00 in0.0 mm 0.00 in0.0 mm
08:40 PM 72.0°F22.2°C 45.0°F7.2°C 38% 1.2 mph SSE1.9 kmh SSE 2.3 mph3.7 kmh 29.78 in1008.5 mb - 0.00 in0.0 mm 0.00 in0.0 mm
08:45 PM 71.8°F22.1°C 44.8°F7.1°C 38% 2.3 mph SSW3.7 kmh SSW 4.6 mph7.4 kmh 29.79 in1008.8 mb - 0.00 in0.0 mm 0.00 in0.0 mm
08:50 PM 71.8°F22.1°C 44.8°F7.1°C 38% 1.2 mph S1.9 kmh S 1.2 mph1.9 kmh 29.79 in1008.8 mb - 0.00 in0.0 mm 0.00 in0.0 mm
08:55 PM 71.6°F22.0°C 44.6°F7.0°C 38% 1.2 mph S1.9 kmh S 3.5 mph5.6 kmh 29.79 in1008.8 mb - 0.00 in0.0 mm 0.00 in0.0 mm
09:00 PM 71.4°F21.9°C 44.5°F6.9°C 38% 2.3 mph SSW3.7 kmh SSW 3.5 mph5.6 kmh 29.79 in1008.8 mb - 0.00 in0.0 mm 0.00 in0.0 mm
09:05 PM 71.3°F21.8°C 44.4°F6.9°C 38% 1.2 mph SSW1.9 kmh SSW 1.2 mph1.9 kmh 29.79 in1008.8 mb - 0.00 in0.0 mm 0.00 in0.0 mm
09:10 PM 71.2°F21.8°C 44.2°F6.8°C 38% 2.3 mph S3.7 kmh S 2.3 mph3.7 kmh 29.79 in1008.8 mb - 0.00 in0.0 mm 0.00 in0.0 mm
09:15 PM 70.8°F21.6°C 44.6°F7.0°C 39% Calm Calm -- 29.79 in1008.8 mb - 0.00 in0.0 mm 0.00 in0.0 mm
09:20 PM 70.3°F21.3°C 44.2°F6.8°C 39% 1.2 mph ESE1.9 kmh ESE 3.5 mph5.6 kmh 29.80 in1009.1 mb - 0.00 in0.0 mm 0.00 in0.0 mm
09:25 PM 70.3°F21.3°C 44.2°F6.8°C 39% 2.3 mph S3.7 kmh S 3.5 mph5.6 kmh 29.81 in1009.5 mb - 0.00 in0.0 mm 0.00 in0.0 mm
09:30 PM 70.4°F21.3°C 44.3°F6.8°C 39% Calm Calm -- 29.81 in1009.5 mb - 0.00 in0.0 mm 0.00 in0.0 mm
09:35 PM 70.1°F21.2°C 44.0°F6.7°C 39% Calm Calm 1.2 mph1.9 kmh 29.81 in1009.5 mb - 0.00 in0.0 mm 0.00 in0.0 mm
09:40 PM 69.9°F21.1°C 43.8°F6.6°C 39% Calm Calm -- 29.81 in1009.5 mb - 0.00 in0.0 mm 0.00 in0.0 mm
09:45 PM 69.4°F20.8°C 43.4°F6.3°C 39% 1.2 mph WSW1.9 kmh WSW 1.2 mph1.9 kmh 29.81 in1009.5 mb - 0.00 in0.0 mm 0.00 in0.0 mm
09:50 PM 69.6°F20.9°C 42.9°F6.1°C 38% 1.2 mph SSE1.9 kmh SSE 2.3 mph3.7 kmh 29.81 in1009.5 mb - 0.00 in0.0 mm 0.00 in0.0 mm
09:55 PM 69.6°F20.9°C 42.2°F5.7°C 37% 4.6 mph WSW7.4 kmh WSW 6.9 mph11.1 kmh 29.81 in1009.5 mb - 0.00 in0.0 mm 0.00 in0.0 mm
10:00 PM 69.6°F20.9°C 42.2°F5.7°C 37% Calm Calm 1.2 mph1.9 kmh 29.81 in1009.5 mb - 0.00 in0.0 mm 0.00 in0.0 mm
10:05 PM 69.8°F21.0°C 41.6°F5.3°C 36% 2.3 mph SW3.7 kmh SW 3.5 mph5.6 kmh 29.81 in1009.5 mb - 0.00 in0.0 mm 0.00 in0.0 mm
10:10 PM 69.6°F20.9°C 41.5°F5.3°C 36% Calm Calm -- 29.82 in1009.8 mb - 0.00 in0.0 mm 0.00 in0.0 mm
10:15 PM 69.4°F20.8°C 41.3°F5.2°C 36% 1.2 mph SSW1.9 kmh SSW 2.3 mph3.7 kmh 29.82 in1009.8 mb - 0.00 in0.0 mm 0.00 in0.0 mm
10:20 PM 69.4°F20.8°C 41.3°F5.2°C 36% 2.3 mph SW3.7 kmh SW 5.8 mph9.3 kmh 29.82 in1009.8 mb - 0.00 in0.0 mm 0.00 in0.0 mm
10:25 PM 69.4°F20.8°C 40.5°F4.7°C 35% 2.3 mph SSW3.7 kmh SSW 2.3 mph3.7 kmh 29.82 in1009.8 mb - 0.00 in0.0 mm 0.00 in0.0 mm
10:30 PM 69.4°F20.8°C 40.5°F4.7°C 35% 1.2 mph WSW1.9 kmh WSW 3.5 mph5.6 kmh 29.82 in1009.8 mb - 0.00 in0.0 mm 0.00 in0.0 mm
10:35 PM 69.4°F20.8°C 40.5°F4.7°C 35% 2.3 mph SSW3.7 kmh SSW 2.3 mph3.7 kmh 29.82 in1009.8 mb - 0.00 in0.0 mm 0.00 in0.0 mm
10:40 PM 69.4°F20.8°C 40.5°F4.7°C 35% 2.3 mph S3.7 kmh S 2.3 mph3.7 kmh 29.82 in1009.8 mb - 0.00 in0.0 mm 0.00 in0.0 mm
10:45 PM 69.4°F20.8°C 40.5°F4.7°C 35% 1.2 mph SSW1.9 kmh SSW 2.3 mph3.7 kmh 29.81 in1009.5 mb - 0.00 in0.0 mm 0.00 in0.0 mm
10:50 PM 69.1°F20.6°C 40.3°F4.6°C 35% 2.3 mph S3.7 kmh S 3.5 mph5.6 kmh 29.81 in1009.5 mb - 0.00 in0.0 mm 0.00 in0.0 mm
10:55 PM 68.9°F20.5°C 40.1°F4.5°C 35% 3.5 mph SW5.6 kmh SW 4.6 mph7.4 kmh 29.81 in1009.5 mb - 0.00 in0.0 mm 0.00 in0.0 mm
11:00 PM 68.9°F20.5°C 40.1°F4.5°C 35% 2.3 mph SSW3.7 kmh SSW 2.3 mph3.7 kmh 29.81 in1009.5 mb - 0.00 in0.0 mm 0.00 in0.0 mm
11:05 PM 68.7°F20.4°C 39.9°F4.4°C 35% 2.3 mph SW3.7 kmh SW 2.3 mph3.7 kmh 29.81 in1009.5 mb - 0.00 in0.0 mm 0.00 in0.0 mm
11:10 PM 68.5°F20.3°C 39.8°F4.3°C 35% 3.5 mph S5.6 kmh S 3.5 mph5.6 kmh 29.81 in1009.5 mb - 0.00 in0.0 mm 0.00 in0.0 mm
11:15 PM 68.4°F20.2°C 40.4°F4.7°C 36% 2.3 mph SSW3.7 kmh SSW 3.5 mph5.6 kmh 29.81 in1009.5 mb - 0.00 in0.0 mm 0.00 in0.0 mm
11:20 PM 68.4°F20.2°C 40.4°F4.7°C 36% 2.3 mph SW3.7 kmh SW 3.5 mph5.6 kmh 29.81 in1009.5 mb - 0.00 in0.0 mm 0.00 in0.0 mm
11:25 PM 68.2°F20.1°C 40.2°F4.6°C 36% 2.3 mph S3.7 kmh S 3.5 mph5.6 kmh 29.81 in1009.5 mb - 0.00 in0.0 mm 0.00 in0.0 mm
11:30 PM 68.0°F20.0°C 40.0°F4.4°C 36% 2.3 mph SE3.7 kmh SE 4.6 mph7.4 kmh 29.81 in1009.5 mb - 0.00 in0.0 mm 0.00 in0.0 mm
11:35 PM 67.8°F19.9°C 39.9°F4.4°C 36% 2.3 mph SSE3.7 kmh SSE 2.3 mph3.7 kmh 29.81 in1009.5 mb - 0.00 in0.0 mm 0.00 in0.0 mm
11:40 PM 67.5°F19.7°C 39.6°F4.2°C 36% 2.3 mph S3.7 kmh S 3.5 mph5.6 kmh 29.81 in1009.5 mb - 0.00 in0.0 mm 0.00 in0.0 mm
11:45 PM 67.3°F19.6°C 40.1°F4.5°C 37% 2.3 mph SSE3.7 kmh SSE 2.3 mph3.7 kmh 29.81 in1009.5 mb - 0.00 in0.0 mm 0.00 in0.0 mm
11:50 PM 67.0°F19.4°C 39.9°F4.4°C 37% 1.2 mph SSW1.9 kmh SSW 3.5 mph5.6 kmh 29.81 in1009.5 mb - 0.00 in0.0 mm 0.00 in0.0 mm
11:55 PM 66.9°F19.4°C 39.8°F4.3°C 37% 1.2 mph SSE1.9 kmh SSE 1.2 mph1.9 kmh 29.81 in1009.5 mb - 0.00 in0.0 mm 0.00 in0.0 mm